Terminal Aerodrome Forecast
Issued by NWS

Home | Current Version | Previous Version | Text Only | Print | Product List | Glossary On
Versions: 1 2 3 4 5 6 7 8 9 10 11 12 13 14 15 16 17 18 19 20 21
000
FTUS44 KLZK 250536
TAFHRO
TAF
KHRO 250536Z 2506/2606 11010G20KT P6SM -RA SCT020 OVC050
      WS020/22040KT
     FM250900 13010G20KT P6SM VCSH SCT020 OVC050 WS020/22040KT
      TEMPO 2509/2513 5SM BR OVC025
     FM251300 23012G18KT P6SM VCSH OVC050
     FM251800 26010G18KT P6SM BKN050 BKN150=

USA.gov is the U.S. government's official web portal to all federal, state and local government web resources and services.